»·PEaware :: N49LP KLSV-33CA

N49LP :: KLSV-33CA

FLIGHT INFORMATION

Flight Status: Arrived
Operator: Privately registered:
United States
More flights under this callsign
Pilot: Les P. (123)
Aircraft: BEECH AIRCRAFT BONANZA
(BE35)
More flights by this aircraft type
Origin: KLSV Nellis AFB
United States
Destination: 33CA Lloyd's Landing
United States
More flights between these airports :: More routes between these airports
Route: +BLD V587 DAG V394 BASAL V12 PMD
File this flight plan on PilotEdge
Remarks:
Altitude:
(Current/Filed)
10,000ft
Speed:
(Current/Filed)
163kts
Departed: 05-May-19 01:54 PM
Arrived: 05-May-19 03:30 PM
Distance/Time
Traveled:
178nm/1:36
Distance/Time
To Go:
Arrived

Flight Plot

Page will automatically refresh every two minutes.

Flight plan parsing failed; only flown route is shown


Map Options




Map Legend


Flown Route
Filed Route
Departure Airport
Arrival Airport
Navaid (VOR, NDB)
Fix

Horizontal Profiles

Position Reports

Time Latitude Longitude Heading Altitude Ground
Speed
05-May-19 12:52 36.244200 -115.033177 267 1873ft 0kts
05-May-19 12:53 36.244200 -115.033177 267 1873ft 0kts
05-May-19 12:54 36.244200 -115.033177 267 1873ft 0kts
05-May-19 12:55 36.244200 -115.033177 267 1873ft 0kts
05-May-19 12:56 36.244200 -115.033177 267 1873ft 0kts
05-May-19 12:57 36.244200 -115.033177 267 1873ft 0kts
05-May-19 12:58 36.244200 -115.033177 267 1873ft 0kts
05-May-19 12:59 36.244200 -115.033177 267 1873ft 0kts
05-May-19 13:00 36.244200 -115.033177 267 1873ft 0kts
05-May-19 13:01 36.244200 -115.033177 267 1873ft 0kts
05-May-19 13:02 36.244200 -115.033177 267 1873ft 0kts
05-May-19 13:03 36.244200 -115.033177 267 1873ft 0kts
05-May-19 13:04 36.244200 -115.033177 267 1873ft 0kts
05-May-19 13:05 36.244200 -115.033177 267 1873ft 0kts
05-May-19 13:06 36.244200 -115.033177 267 1873ft 0kts
05-May-19 13:07 36.244200 -115.033177 267 1873ft 0kts
05-May-19 13:08 36.244200 -115.033177 267 1873ft 0kts
05-May-19 13:09 36.244200 -115.033177 267 1873ft 0kts
05-May-19 13:10 36.244200 -115.033177 267 1873ft 0kts
05-May-19 13:11 36.244200 -115.033179 267 1873ft 0kts
05-May-19 13:12 36.244199 -115.033182 267 1873ft 0kts
05-May-19 13:13 36.244199 -115.033185 267 1873ft 0kts
05-May-19 13:14 36.244199 -115.033187 267 1873ft 0kts
05-May-19 13:15 36.244199 -115.033190 267 1873ft 0kts
05-May-19 13:16 36.244199 -115.033192 267 1873ft 0kts
05-May-19 13:17 36.244199 -115.033195 267 1873ft 0kts
05-May-19 13:18 36.244199 -115.033197 267 1873ft 0kts
05-May-19 13:19 36.244199 -115.033200 267 1873ft 0kts
05-May-19 13:20 36.244199 -115.033202 267 1873ft 0kts
05-May-19 13:21 36.244199 -115.033205 267 1873ft 0kts
05-May-19 13:22 36.244199 -115.033207 267 1873ft 0kts
05-May-19 13:23 36.243718 -115.032927 134 1873ft 2kts
05-May-19 13:24 36.243704 -115.032910 133 1873ft 0kts
05-May-19 13:25 36.243703 -115.032909 133 1873ft 0kts
05-May-19 13:26 36.243702 -115.032907 133 1873ft 0kts
05-May-19 13:27 36.243700 -115.032905 133 1873ft 0kts
05-May-19 13:29 36.243699 -115.032903 133 1873ft 0kts
05-May-19 13:30 36.243698 -115.032902 133 1873ft 0kts
05-May-19 13:31 36.243696 -115.032900 133 1873ft 0kts
05-May-19 13:32 36.243695 -115.032898 133 1873ft 0kts
05-May-19 13:33 36.243694 -115.032896 133 1873ft 0kts
05-May-19 13:34 36.243692 -115.032895 133 1873ft 0kts
05-May-19 13:35 36.243691 -115.032893 133 1873ft 0kts
05-May-19 13:36 36.243690 -115.032891 133 1873ft 0kts
05-May-19 13:37 36.243688 -115.032890 133 1873ft 0kts
05-May-19 13:38 36.243687 -115.032888 133 1873ft 0kts
05-May-19 13:39 36.243686 -115.032886 133 1873ft 0kts
05-May-19 13:40 36.243684 -115.032884 133 1873ft 0kts
05-May-19 13:41 36.243683 -115.032883 133 1873ft 0kts
05-May-19 13:42 36.243681 -115.032881 133 1873ft 0kts
05-May-19 13:43 36.243680 -115.032879 133 1873ft 0kts
05-May-19 13:44 36.243679 -115.032878 133 1873ft 0kts
05-May-19 13:45 36.243677 -115.032876 133 1873ft 0kts
05-May-19 13:46 36.243796 -115.031497 4 1873ft 10kts
05-May-19 13:47 36.246994 -115.031119 3 1873ft 12kts
05-May-19 13:48 36.247207 -115.026407 91 1873ft 15kts
05-May-19 13:49 36.247197 -115.025805 93 1873ft 0kts
05-May-19 13:50 36.247197 -115.025801 93 1873ft 0kts
05-May-19 13:50 36.247197 -115.025798 93 1873ft 0kts
05-May-19 13:52 36.247196 -115.025794 93 1873ft 0kts
05-May-19 13:53 36.246875 -115.024870 201 1873ft 6kts
05-May-19 13:53 36.239491 -115.032937 218 1895ft 92kts
05-May-19 13:55 36.213953 -115.059672 211 2732ft 106kts
05-May-19 13:55 36.188670 -115.055850 154 3306ft 117kts
05-May-19 13:56 36.161366 -115.035974 141 4085ft 110kts
05-May-19 13:58 36.135259 -115.006813 142 4896ft 108kts
05-May-19 13:58 36.115866 -114.986810 143 5441ft 112kts
05-May-19 13:59 36.087520 -114.957750 142 5496ft 148kts
05-May-19 14:00 36.054844 -114.924160 142 5504ft 151kts
05-May-19 14:01 36.023020 -114.891489 142 5500ft 145kts
05-May-19 14:02 35.989410 -114.875025 204 5778ft 129kts
05-May-19 14:03 35.964218 -114.906928 224 6401ft 125kts
05-May-19 14:04 35.940746 -114.938645 225 7062ft 125kts
05-May-19 14:05 35.917331 -114.970598 225 7736ft 123kts
05-May-19 14:06 35.894902 -115.001103 224 8455ft 117kts
05-May-19 14:07 35.872957 -115.030938 224 9088ft 117kts
05-May-19 14:08 35.851168 -115.060554 224 9713ft 116kts
05-May-19 14:09 35.829564 -115.089904 224 10290ft 115kts
05-May-19 14:10 35.807061 -115.120379 224 10522ft 134kts
05-May-19 14:11 35.780250 -115.156841 224 10530ft 145kts
05-May-19 14:12 35.753174 -115.193531 224 10528ft 145kts
05-May-19 14:13 35.725956 -115.230376 224 10523ft 146kts
05-May-19 14:14 35.698218 -115.267856 224 10505ft 147kts
05-May-19 14:15 35.670464 -115.305218 224 10503ft 147kts
05-May-19 14:16 35.642794 -115.342467 224 10499ft 148kts
05-May-19 14:17 35.614997 -115.379794 225 10528ft 147kts
05-May-19 14:18 35.587112 -115.417450 224 10530ft 148kts
05-May-19 14:19 35.559399 -115.454764 224 10535ft 147kts
05-May-19 14:20 35.531863 -115.491751 224 10526ft 146kts
05-May-19 14:21 35.504519 -115.528337 224 10529ft 146kts
05-May-19 14:22 35.476749 -115.565547 224 10530ft 148kts
05-May-19 14:23 35.448728 -115.602994 224 10528ft 149kts
05-May-19 14:24 35.420754 -115.640392 224 10532ft 147kts
05-May-19 14:25 35.392981 -115.677389 224 10538ft 146kts
05-May-19 14:26 35.365523 -115.713985 224 10539ft 147kts
05-May-19 14:27 35.337654 -115.751107 224 10537ft 147kts
05-May-19 14:28 35.310250 -115.788130 233 10540ft 148kts
05-May-19 14:29 35.290646 -115.833598 239 10535ft 151kts
05-May-19 14:30 35.270978 -115.878894 238 10542ft 149kts
05-May-19 14:31 35.251615 -115.923301 238 10541ft 148kts
05-May-19 14:32 35.232052 -115.967920 238 10543ft 149kts
05-May-19 14:33 35.212340 -116.012917 238 10543ft 150kts
05-May-19 14:34 35.192564 -116.058012 238 10541ft 150kts
05-May-19 14:35 35.172791 -116.103052 238 10547ft 150kts
05-May-19 14:36 35.153029 -116.148016 238 10549ft 149kts
05-May-19 14:37 35.133503 -116.192332 238 10560ft 149kts
05-May-19 14:38 35.113693 -116.237255 238 10562ft 150kts
05-May-19 14:39 35.093967 -116.281937 238 10561ft 149kts
05-May-19 14:40 35.074171 -116.326726 238 10561ft 148kts
05-May-19 14:41 35.054759 -116.370583 238 10559ft 147kts
05-May-19 14:42 35.034940 -116.415134 238 10514ft 150kts
05-May-19 14:43 35.015380 -116.459313 238 10507ft 148kts
05-May-19 14:44 34.995552 -116.503793 239 10506ft 149kts
05-May-19 14:45 34.975768 -116.548449 238 10508ft 147kts
05-May-19 14:46 34.954192 -116.589985 226 10506ft 145kts
05-May-19 14:47 34.927141 -116.627416 226 10507ft 147kts
05-May-19 14:48 34.900085 -116.665049 226 10503ft 146kts
05-May-19 14:49 34.873194 -116.702277 226 10501ft 146kts
05-May-19 14:50 34.846077 -116.739863 227 10503ft 146kts
05-May-19 14:51 34.819285 -116.776953 226 10503ft 146kts
05-May-19 14:52 34.792424 -116.814056 226 10506ft 146kts
05-May-19 14:53 34.765546 -116.851360 226 10510ft 144kts
05-May-19 14:54 34.754518 -116.897006 259 10523ft 145kts
05-May-19 14:55 34.749455 -116.945833 259 10533ft 145kts
05-May-19 14:56 34.744476 -116.994399 259 10542ft 144kts
05-May-19 14:57 34.739497 -117.043571 259 10478ft 150kts
05-May-19 14:58 34.734393 -117.094185 258 10473ft 150kts
05-May-19 14:59 34.729250 -117.144257 259 10484ft 148kts
05-May-19 15:00 34.724143 -117.193917 259 10490ft 148kts
05-May-19 15:01 34.718962 -117.244118 258 10492ft 150kts
05-May-19 15:02 34.713755 -117.294415 258 10487ft 148kts
05-May-19 15:03 34.708633 -117.343661 258 10496ft 147kts
05-May-19 15:04 34.703423 -117.393516 258 10494ft 149kts
05-May-19 15:05 34.698165 -117.443827 258 10495ft 148kts
05-May-19 15:06 34.692962 -117.493231 258 10488ft 148kts
05-May-19 15:07 34.687693 -117.543135 258 10488ft 148kts
05-May-19 15:08 34.682441 -117.592687 258 10483ft 148kts
05-May-19 15:09 34.677153 -117.642351 258 10480ft 147kts
05-May-19 15:10 34.671876 -117.691757 258 10476ft 147kts
05-May-19 15:11 34.666558 -117.741303 258 10478ft 146kts
05-May-19 15:12 34.661301 -117.790072 258 10475ft 146kts
05-May-19 15:13 34.655981 -117.839292 258 10484ft 146kts
05-May-19 15:14 34.650638 -117.888536 258 10479ft 147kts
05-May-19 15:15 34.648470 -117.938041 280 10407ft 154kts
05-May-19 15:16 34.658698 -117.991902 270 9550ft 165kts
05-May-19 15:17 34.656480 -118.047982 260 8630ft 170kts
05-May-19 15:18 34.651311 -118.103676 292 7703ft 170kts
05-May-19 15:19 34.683417 -118.146372 332 6572ft 173kts
05-May-19 15:20 34.727456 -118.167489 327 5763ft 167kts
05-May-19 15:21 34.769418 -118.192961 332 4885ft 169kts
05-May-19 15:22 34.804301 -118.225748 313 4436ft 159kts
05-May-19 15:23 34.837384 -118.259254 311 4252ft 149kts
05-May-19 15:24 34.874460 -118.288373 353 3817ft 167kts
05-May-19 15:25 34.903584 -118.252902 65 3889ft 158kts
05-May-19 15:26 34.928857 -118.246172 241 3534ft 107kts
05-May-19 15:27 34.912593 -118.273270 239 2920ft 91kts
05-May-19 15:28 34.906242 -118.298663 246 2696ft 61kts
05-May-19 15:29 34.905115 -118.303291 260 2694ft 0kts
05-May-19 15:30 34.917834 -118.264766 229 3051ft 95kts
05-May-19 15:31 34.908315 -118.291076 246 2773ft 73kts
05-May-19 15:32 34.905114 -118.303296 261 2694ft 0kts
05-May-19 15:33 34.905643 -118.303633 338 2699ft 2kts
05-May-19 15:34 34.905788 -118.303620 79 2700ft 0kts
05-May-19 15:35 34.905787 -118.303619 79 2699ft 0kts

Navigation Log

Ident Type
Flight plan parsing failed, navigation log unavailable